South Holston Observed Data For Previous 48 Hours

Caption
Day and Hour Reservoir Elevation (behind dam)* Tailwater Elevation (below dam)* Average Hourly Discharge*
4/23/2017 2 AM EDT 1,724.02 1,486.09 10
4/23/2017 3 AM EDT 1,724.05 1,485.87 10
4/23/2017 4 AM EDT 1,724.08 1,485.67 10
4/23/2017 5 AM EDT 1,724.09 1,485.47 10
4/23/2017 6 AM EDT 1,724.12 1,485.29 10
4/23/2017 7 AM EDT 1,724.15 1,485.13 10
4/23/2017 8 AM EDT 1,724.18 1,485.03 10
4/23/2017 9 AM EDT 1,724.19 1,486.61 1,409
4/23/2017 10 AM EDT 1,724.23 1,486.10 10
4/23/2017 11 AM EDT 1,724.26 1,485.89 10
4/23/2017 12 PM EDT 1,724.30 1,485.69 10
4/23/2017 1 PM EDT 1,724.34 1,485.52 10
4/23/2017 2 PM EDT 1,724.40 1,485.38 10
4/23/2017 3 PM EDT 1,724.46 1,485.25 10
4/23/2017 4 PM EDT 1,724.51 1,485.27 10
4/23/2017 5 PM EDT 1,724.56 1,486.43 1,398
4/23/2017 6 PM EDT 1,724.64 1,486.17 10
4/23/2017 7 PM EDT 1,724.71 1,486.02 10
4/23/2017 8 PM EDT 1,724.82 1,485.89 10
4/23/2017 9 PM EDT 1,724.94 1,485.76 10
4/23/2017 10 PM EDT 1,725.07 1,485.64 10
4/23/2017 11 PM EDT 1,725.20 1,485.53 10
4/24/2017 12 AM EDT 1,725.36 1,485.53 10
4/24/2017 1 AM EDT 1,725.49 1,486.69 1,400
4/24/2017 2 AM EDT 1,725.63 1,486.19 10
4/24/2017 3 AM EDT 1,725.80 1,486.05 10
4/24/2017 4 AM EDT 1,725.97 1,485.92 10
4/24/2017 5 AM EDT 1,726.16 1,485.79 10
4/24/2017 6 AM EDT 1,726.34 1,485.65 10
4/24/2017 7 AM EDT 1,726.51 1,485.50 10
4/24/2017 8 AM EDT 1,726.69 1,485.45 10
4/24/2017 9 AM EDT 1,726.88 1,486.69 1,391
4/24/2017 10 AM EDT 1,727.05 1,486.12 10
4/24/2017 11 AM EDT 1,727.23 1,485.92 10
4/24/2017 12 PM EDT 1,727.41 1,485.74 10
4/24/2017 1 PM EDT 1,727.59 1,485.54 10
4/24/2017 2 PM EDT 1,727.76 1,485.38 10
4/24/2017 3 PM EDT 1,727.93 1,485.21 10
4/24/2017 4 PM EDT 1,728.10 1,485.22 10
4/24/2017 5 PM EDT 1,728.25 1,486.51 1,406
4/24/2017 6 PM EDT 1,728.41 1,486.09 10
4/24/2017 7 PM EDT 1,728.56 1,485.88 10
4/24/2017 8 PM EDT 1,728.71 1,485.68 10
4/24/2017 9 PM EDT 1,728.86 1,485.48 10
4/24/2017 10 PM EDT 1,728.99 1,485.30 10
4/24/2017 11 PM EDT 1,729.12 1,485.14 10
4/25/2017 12 AM EDT 1,729.24 1,485.18 10
4/25/2017 1 AM EDT 1,729.35 1,486.59 1,396
4/25/2017 2 AM EDT 1,729.45 1,486.09 10
4/25/2017 3 AM EDT 1,729.55 1,485.87 10
4/25/2017 4 AM EDT 1,729.65 1,485.67 10

Elevations are in feet above sea level. Discharges are in cubic feet per second and are reported at the end of the hour.